Aérodrome :
LOGIN :

S'inscrire | Disclaimer

   EN    FR    IT 

 










Légende :    VFR   VFR Marginal   IFR   IFR Intensif   IFR Très Intensif
Visi : 
Plafond : 
>= 8 km
>= 3000ft
5 à 8 km
1000 à 3000 ft
1500m à 5 km
500 à 1000 ft
800 à 1500m
200 à 500 ft
< 800m
< 200 ft
Symboles :   Orages  Brouillard  Fortes neiges  Fortes précipitations  Vent > 20 kt
SIGMETs :   Divers  Orages  Givrage  Turbulence  Onde Orograph.  Cendres Volcan.







- Altitude de l'aérodrome : 526 ft
- Code IATA : LTN
- Voir les cartes d'approche


EGGW - London Luton

DERNIER METAR :
  • 230250Z AUTO 21004KT 9999 NCD 09/05 Q1017

METARs EXPIRÉS :
  • 230220Z AUTO 24004KT 9999 NCD 09/05 Q1017
  • 230150Z AUTO 23005KT 9999 NCD 09/04 Q1017
  • 230120Z AUTO 21005KT 9999 NCD 10/04 Q1017
  • 230050Z AUTO 22005KT 9999 NCD 10/04 Q1017
  • 230020Z AUTO 21004KT 190V250 9999 NCD 11/04 Q1017

TAF TAF EGGW
Valide du 23 à 00h jusqu'au 24 à 00h UTC


222256Z 2300/2324 23006KT 9999 FEW045
ATIS : +44 1582 395 204
Pas de NOTAMs connus pour ce terrain.



MET'MAP, la Météo Aéronautique d'un coup d'oeil ! - Copyright ORBIFLY Décembre 2007 - Disclaimer

ORBIFLY MET'MAP TEAM :

Programmation & Développement : Alexandra Zaïnal
Conception & Développement : Baudouin d'Aumeries
Co-Programmation & Développement : Marc-Olivier Méhu
Soutien technique & logistique : Manuel Goepfert

Contact : metmap@orbifly.com




SOURCES & CREDITS :

   NOAA